Est del Rocio, Puerto Rico
Current Conditions -  °F | °C
As of 9:53 PM on Sunday 23 Nov 2014 (Local Time) from TJNR Reporting Station
Overcast Overcast  
Wind Chill: 82°   Ceiling: 7000
Heat Index: 86°   Visibility: 10mi
Dew Point: 71°   Wind: 10mph
Humidity: 69%   Direction: 70°ENE
Pressure: 30.06"   Gusts: NA
Location:  18.1853°N, 65.8667°W
Report Text: TJNR 240153Z AUTO 07009KT 10SM FEW028 FEW050 OVC070 28/22 A3006 RMK AO2 SLP178 T02780217 $
Loading
Personal Weather Stations






























Interactive Weather Map New forecast layout! Learn more

10-Day Weather Forecast

Advertisements
Track Severe Weather on mobile